PWSweather.com
Personal Weather Stations
Station Observations
PRATO
PratoIT 59100

PratoIT 59100

Lat: 43.8956799, Lon: 11.0845155

Elevation: 164

Station Type: Davis Vantage Vue

http://www.meteoprato.it

High Low Average
Temperature 56.3°F13.5°C 43.9°F6.6°C 50.2°F10.1°C
Dew Point 42.9°F6.1°C 35.5°F1.9°C 38.6°F3.7°C
Winds 8.8 mph 14.2 kmh Calm Calm 4.0 mph E6.4 kmh E
Wind Gusts 15.0 mph24.1 kmh -- 8.0 mph12.9 kmh
Humidity 80% 55% 65%
Pressure 30.09 in1019.0 mb 29.97 in1014.9 mb -
Precipitation 0.00 in0.0 mm - -
Hour Temp Dew Point Humidity Winds Wind Gusts Pressure Precip Precip Rate Daily Precip Total
12:00 AM 44.9°F7.2°C 38.5°F3.6°C 78% Calm Calm -- 29.99 in1015.6 mb 0.00 in0.0 mm 0.00 in0.0 mm 0.00 in0.0 mm
12:05 AM 44.9°F7.2°C 38.8°F3.8°C 79% Calm Calm -- 29.99 in1015.6 mb 0.00 in0.0 mm 0.00 in0.0 mm 0.00 in0.0 mm
12:10 AM 45.0°F7.2°C 38.6°F3.7°C 78% Calm Calm -- 29.98 in1015.2 mb 0.00 in0.0 mm 0.00 in0.0 mm 0.00 in0.0 mm
12:15 AM 45.2°F7.3°C 38.7°F3.7°C 78% Calm Calm -- 29.98 in1015.2 mb 0.00 in0.0 mm 0.00 in0.0 mm 0.00 in0.0 mm
12:20 AM 45.2°F7.3°C 38.7°F3.7°C 78% Calm Calm -- 29.98 in1015.2 mb 0.00 in0.0 mm 0.00 in0.0 mm 0.00 in0.0 mm
12:25 AM 45.3°F7.4°C 38.8°F3.8°C 78% Calm Calm -- 29.98 in1015.2 mb 0.00 in0.0 mm 0.00 in0.0 mm 0.00 in0.0 mm
12:30 AM 45.4°F7.4°C 38.6°F3.7°C 77% Calm Calm -- 29.98 in1015.2 mb 0.00 in0.0 mm 0.00 in0.0 mm 0.00 in0.0 mm
12:35 AM 45.4°F7.4°C 38.6°F3.7°C 77% Calm Calm -- 29.98 in1015.2 mb 0.00 in0.0 mm 0.00 in0.0 mm 0.00 in0.0 mm
12:40 AM 45.5°F7.5°C 38.7°F3.7°C 77% Calm Calm -- 29.98 in1015.2 mb 0.00 in0.0 mm 0.00 in0.0 mm 0.00 in0.0 mm
12:45 AM 45.6°F7.6°C 38.8°F3.8°C 77% Calm Calm -- 29.98 in1015.2 mb 0.00 in0.0 mm 0.00 in0.0 mm 0.00 in0.0 mm
12:50 AM 45.6°F7.6°C 38.8°F3.8°C 77% Calm Calm -- 29.98 in1015.2 mb 0.00 in0.0 mm 0.00 in0.0 mm 0.00 in0.0 mm
12:55 AM 45.8°F7.7°C 39.0°F3.9°C 77% Calm Calm -- 29.98 in1015.2 mb 0.00 in0.0 mm 0.00 in0.0 mm 0.00 in0.0 mm
01:00 AM 45.7°F7.6°C 38.9°F3.8°C 77% Calm Calm 2.0 mph3.2 kmh 29.97 in1014.9 mb 0.00 in0.0 mm 0.00 in0.0 mm 0.00 in0.0 mm
01:05 AM 45.6°F7.6°C 39.1°F3.9°C 78% Calm Calm 2.0 mph3.2 kmh 29.97 in1014.9 mb 0.00 in0.0 mm 0.00 in0.0 mm 0.00 in0.0 mm
01:10 AM 45.9°F7.7°C 39.4°F4.1°C 78% Calm Calm -- 29.97 in1014.9 mb 0.00 in0.0 mm 0.00 in0.0 mm 0.00 in0.0 mm
01:15 AM 45.9°F7.7°C 39.1°F3.9°C 77% Calm Calm -- 29.97 in1014.9 mb 0.00 in0.0 mm 0.00 in0.0 mm 0.00 in0.0 mm
01:20 AM 46.1°F7.8°C 39.3°F4.1°C 77% Calm Calm 4.0 mph6.4 kmh 29.97 in1014.9 mb 0.00 in0.0 mm 0.00 in0.0 mm 0.00 in0.0 mm
01:25 AM 46.8°F8.2°C 39.6°F4.2°C 76% 0.1 mph NE0.2 kmh NE 7.0 mph11.3 kmh 29.97 in1014.9 mb 0.00 in0.0 mm 0.00 in0.0 mm 0.00 in0.0 mm
01:30 AM 47.9°F8.8°C 39.3°F4.1°C 72% 1.0 mph NE1.6 kmh NE 8.0 mph12.9 kmh 29.98 in1015.2 mb 0.00 in0.0 mm 0.00 in0.0 mm 0.00 in0.0 mm
01:35 AM 48.1°F8.9°C 38.8°F3.8°C 70% 2.6 mph NE4.2 kmh NE 9.0 mph14.5 kmh 29.98 in1015.2 mb 0.00 in0.0 mm 0.00 in0.0 mm 0.00 in0.0 mm
01:40 AM 48.3°F9.1°C 38.2°F3.4°C 68% 3.7 mph NE6.0 kmh NE 9.0 mph14.5 kmh 29.97 in1014.9 mb 0.00 in0.0 mm 0.00 in0.0 mm 0.00 in0.0 mm
01:45 AM 48.4°F9.1°C 38.7°F3.7°C 69% 4.0 mph NE6.4 kmh NE 7.0 mph11.3 kmh 29.97 in1014.9 mb 0.00 in0.0 mm 0.00 in0.0 mm 0.00 in0.0 mm
01:50 AM 48.5°F9.2°C 38.4°F3.6°C 68% 3.2 mph NE5.1 kmh NE 5.0 mph8.0 kmh 29.98 in1015.2 mb 0.00 in0.0 mm 0.00 in0.0 mm 0.00 in0.0 mm
01:55 AM 48.5°F9.2°C 38.0°F3.3°C 67% 1.7 mph NE2.7 kmh NE 5.0 mph8.0 kmh 29.98 in1015.2 mb 0.00 in0.0 mm 0.00 in0.0 mm 0.00 in0.0 mm
02:00 AM 48.3°F9.1°C 37.8°F3.2°C 67% 1.1 mph NE1.8 kmh NE 9.0 mph14.5 kmh 29.98 in1015.2 mb 0.00 in0.0 mm 0.00 in0.0 mm 0.00 in0.0 mm
02:05 AM 48.1°F8.9°C 37.3°F2.9°C 66% 2.2 mph NE3.5 kmh NE 10.0 mph16.1 kmh 29.99 in1015.6 mb 0.00 in0.0 mm 0.00 in0.0 mm 0.00 in0.0 mm
02:10 AM 48.1°F8.9°C 37.3°F2.9°C 66% 3.9 mph NE6.3 kmh NE 10.0 mph16.1 kmh 29.99 in1015.6 mb 0.00 in0.0 mm 0.00 in0.0 mm 0.00 in0.0 mm
02:15 AM 48.1°F8.9°C 37.3°F2.9°C 66% 4.8 mph NE7.7 kmh NE 10.0 mph16.1 kmh 29.98 in1015.2 mb 0.00 in0.0 mm 0.00 in0.0 mm 0.00 in0.0 mm
02:20 AM 48.0°F8.9°C 37.2°F2.9°C 66% 5.3 mph NE8.5 kmh NE 10.0 mph16.1 kmh 29.99 in1015.6 mb 0.00 in0.0 mm 0.00 in0.0 mm 0.00 in0.0 mm
02:25 AM 48.0°F8.9°C 36.8°F2.7°C 65% 5.3 mph NE8.5 kmh NE 11.0 mph17.7 kmh 29.99 in1015.6 mb 0.00 in0.0 mm 0.00 in0.0 mm 0.00 in0.0 mm
02:30 AM 47.9°F8.8°C 36.7°F2.6°C 65% 5.4 mph NE8.7 kmh NE 12.0 mph19.3 kmh 29.99 in1015.6 mb 0.00 in0.0 mm 0.00 in0.0 mm 0.00 in0.0 mm
02:35 AM 47.9°F8.8°C 36.3°F2.4°C 64% 6.8 mph NE10.9 kmh NE 13.0 mph20.9 kmh 29.98 in1015.2 mb 0.00 in0.0 mm 0.00 in0.0 mm 0.00 in0.0 mm
02:40 AM 48.0°F8.9°C 36.4°F2.4°C 64% 7.9 mph NE12.7 kmh NE 13.0 mph20.9 kmh 29.99 in1015.6 mb 0.00 in0.0 mm 0.00 in0.0 mm 0.00 in0.0 mm
02:45 AM 48.0°F8.9°C 36.4°F2.4°C 64% 8.0 mph NE12.9 kmh NE 13.0 mph20.9 kmh 29.99 in1015.6 mb 0.00 in0.0 mm 0.00 in0.0 mm 0.00 in0.0 mm
02:50 AM 48.0°F8.9°C 36.0°F2.2°C 63% 8.0 mph NE12.9 kmh NE 14.0 mph22.5 kmh 29.99 in1015.6 mb 0.00 in0.0 mm 0.00 in0.0 mm 0.00 in0.0 mm
02:55 AM 48.1°F8.9°C 36.1°F2.3°C 63% 8.0 mph NE12.9 kmh NE 14.0 mph22.5 kmh 29.99 in1015.6 mb 0.00 in0.0 mm 0.00 in0.0 mm 0.00 in0.0 mm
03:00 AM 48.1°F8.9°C 36.1°F2.3°C 63% 8.0 mph NE12.9 kmh NE 12.0 mph19.3 kmh 29.98 in1015.2 mb 0.00 in0.0 mm 0.00 in0.0 mm 0.00 in0.0 mm
03:05 AM 48.1°F8.9°C 36.1°F2.3°C 63% 7.7 mph NE12.4 kmh NE 12.0 mph19.3 kmh 29.98 in1015.2 mb 0.00 in0.0 mm 0.00 in0.0 mm 0.00 in0.0 mm
03:10 AM 48.0°F8.9°C 36.0°F2.2°C 63% 7.0 mph NE11.3 kmh NE 11.0 mph17.7 kmh 29.98 in1015.2 mb 0.00 in0.0 mm 0.00 in0.0 mm 0.00 in0.0 mm
03:15 AM 47.9°F8.8°C 35.9°F2.2°C 63% 6.2 mph NE10.0 kmh NE 12.0 mph19.3 kmh 29.99 in1015.6 mb 0.00 in0.0 mm 0.00 in0.0 mm 0.00 in0.0 mm
03:20 AM 47.9°F8.8°C 35.9°F2.2°C 63% 5.8 mph NE9.3 kmh NE 12.0 mph19.3 kmh 29.98 in1015.2 mb 0.00 in0.0 mm 0.00 in0.0 mm 0.00 in0.0 mm
03:25 AM 47.9°F8.8°C 35.5°F1.9°C 62% 5.9 mph NE9.5 kmh NE 10.0 mph16.1 kmh 29.98 in1015.2 mb 0.00 in0.0 mm 0.00 in0.0 mm 0.00 in0.0 mm
03:30 AM 47.9°F8.8°C 35.9°F2.2°C 63% 5.6 mph NE9.0 kmh NE 9.0 mph14.5 kmh 29.98 in1015.2 mb 0.00 in0.0 mm 0.00 in0.0 mm 0.00 in0.0 mm
03:35 AM 48.0°F8.9°C 36.0°F2.2°C 63% 5.1 mph NE8.2 kmh NE 8.0 mph12.9 kmh 29.98 in1015.2 mb 0.00 in0.0 mm 0.00 in0.0 mm 0.00 in0.0 mm
03:40 AM 47.9°F8.8°C 35.9°F2.2°C 63% 4.5 mph NE7.2 kmh NE 8.0 mph12.9 kmh 29.98 in1015.2 mb 0.00 in0.0 mm 0.00 in0.0 mm 0.00 in0.0 mm
03:45 AM 48.0°F8.9°C 36.0°F2.2°C 63% 4.0 mph NE6.4 kmh NE 8.0 mph12.9 kmh 29.98 in1015.2 mb 0.00 in0.0 mm 0.00 in0.0 mm 0.00 in0.0 mm
03:50 AM 48.1°F8.9°C 36.1°F2.3°C 63% 4.0 mph NE6.4 kmh NE 8.0 mph12.9 kmh 29.98 in1015.2 mb 0.00 in0.0 mm 0.00 in0.0 mm 0.00 in0.0 mm
03:55 AM 48.1°F8.9°C 36.1°F2.3°C 63% 4.0 mph NE6.4 kmh NE 8.0 mph12.9 kmh 29.98 in1015.2 mb 0.00 in0.0 mm 0.00 in0.0 mm 0.00 in0.0 mm
04:00 AM 48.1°F8.9°C 35.7°F2.1°C 62% 4.0 mph NE6.4 kmh NE 10.0 mph16.1 kmh 29.98 in1015.2 mb 0.00 in0.0 mm 0.00 in0.0 mm 0.00 in0.0 mm
04:05 AM 48.3°F9.1°C 35.9°F2.2°C 62% 4.0 mph NE6.4 kmh NE 10.0 mph16.1 kmh 29.98 in1015.2 mb 0.00 in0.0 mm 0.00 in0.0 mm 0.00 in0.0 mm
04:10 AM 48.5°F9.2°C 36.5°F2.5°C 63% 4.0 mph NE6.4 kmh NE 9.0 mph14.5 kmh 29.98 in1015.2 mb 0.00 in0.0 mm 0.00 in0.0 mm 0.00 in0.0 mm
04:15 AM 48.6°F9.2°C 36.6°F2.6°C 63% 4.1 mph NE6.6 kmh NE 12.0 mph19.3 kmh 29.98 in1015.2 mb 0.00 in0.0 mm 0.00 in0.0 mm 0.00 in0.0 mm
04:20 AM 48.6°F9.2°C 36.6°F2.6°C 63% 4.9 mph NE7.9 kmh NE 12.0 mph19.3 kmh 29.98 in1015.2 mb 0.00 in0.0 mm 0.00 in0.0 mm 0.00 in0.0 mm
04:25 AM 48.5°F9.2°C 36.1°F2.3°C 62% 6.2 mph NE10.0 kmh NE 10.0 mph16.1 kmh 29.98 in1015.2 mb 0.00 in0.0 mm 0.00 in0.0 mm 0.00 in0.0 mm
04:30 AM 48.5°F9.2°C 36.1°F2.3°C 62% 6.7 mph NE10.8 kmh NE 10.0 mph16.1 kmh 29.98 in1015.2 mb 0.00 in0.0 mm 0.00 in0.0 mm 0.00 in0.0 mm
04:35 AM 48.6°F9.2°C 36.2°F2.3°C 62% 6.1 mph NE9.8 kmh NE 9.0 mph14.5 kmh 29.98 in1015.2 mb 0.00 in0.0 mm 0.00 in0.0 mm 0.00 in0.0 mm
04:40 AM 48.6°F9.2°C 36.6°F2.6°C 63% 5.2 mph NE8.4 kmh NE 8.0 mph12.9 kmh 29.98 in1015.2 mb 0.00 in0.0 mm 0.00 in0.0 mm 0.00 in0.0 mm
04:45 AM 48.6°F9.2°C 36.6°F2.6°C 63% 4.4 mph NE7.1 kmh NE 7.0 mph11.3 kmh 29.98 in1015.2 mb 0.00 in0.0 mm 0.00 in0.0 mm 0.00 in0.0 mm
04:50 AM 48.5°F9.2°C 36.5°F2.5°C 63% 4.0 mph NE6.4 kmh NE 7.0 mph11.3 kmh 29.98 in1015.2 mb 0.00 in0.0 mm 0.00 in0.0 mm 0.00 in0.0 mm
04:55 AM 48.5°F9.2°C 36.5°F2.5°C 63% 3.7 mph NE6.0 kmh NE 7.0 mph11.3 kmh 29.98 in1015.2 mb 0.00 in0.0 mm 0.00 in0.0 mm 0.00 in0.0 mm
05:00 AM 48.5°F9.2°C 36.9°F2.7°C 64% 3.2 mph NE5.1 kmh NE 5.0 mph8.0 kmh 29.98 in1015.2 mb 0.00 in0.0 mm 0.00 in0.0 mm 0.00 in0.0 mm
05:05 AM 48.6°F9.2°C 37.0°F2.8°C 64% 2.4 mph NE3.9 kmh NE 3.0 mph4.8 kmh 29.98 in1015.2 mb 0.00 in0.0 mm 0.00 in0.0 mm 0.00 in0.0 mm
05:10 AM 48.7°F9.3°C 37.1°F2.8°C 64% 1.4 mph NE2.3 kmh NE 4.0 mph6.4 kmh 29.98 in1015.2 mb 0.00 in0.0 mm 0.00 in0.0 mm 0.00 in0.0 mm
05:15 AM 48.7°F9.3°C 37.1°F2.8°C 64% 1.5 mph NE2.4 kmh NE 5.0 mph8.0 kmh 29.98 in1015.2 mb 0.00 in0.0 mm 0.00 in0.0 mm 0.00 in0.0 mm
05:20 AM 48.8°F9.3°C 37.2°F2.9°C 64% 2.5 mph NE4.0 kmh NE 7.0 mph11.3 kmh 29.98 in1015.2 mb 0.00 in0.0 mm 0.00 in0.0 mm 0.00 in0.0 mm
05:25 AM 48.8°F9.3°C 36.8°F2.7°C 63% 3.0 mph NE4.8 kmh NE 8.0 mph12.9 kmh 29.98 in1015.2 mb 0.00 in0.0 mm 0.00 in0.0 mm 0.00 in0.0 mm
05:30 AM 48.8°F9.3°C 36.8°F2.7°C 63% 3.4 mph NE5.5 kmh NE 9.0 mph14.5 kmh 29.98 in1015.2 mb 0.00 in0.0 mm 0.00 in0.0 mm 0.00 in0.0 mm
05:35 AM 48.7°F9.3°C 36.7°F2.6°C 63% 4.4 mph NE7.1 kmh NE 9.0 mph14.5 kmh 29.98 in1015.2 mb 0.00 in0.0 mm 0.00 in0.0 mm 0.00 in0.0 mm
05:40 AM 48.6°F9.2°C 36.6°F2.6°C 63% 5.2 mph NE8.4 kmh NE 9.0 mph14.5 kmh 29.98 in1015.2 mb 0.00 in0.0 mm 0.00 in0.0 mm 0.00 in0.0 mm
05:45 AM 48.5°F9.2°C 36.5°F2.5°C 63% 4.9 mph NE7.9 kmh NE 9.0 mph14.5 kmh 29.98 in1015.2 mb 0.00 in0.0 mm 0.00 in0.0 mm 0.00 in0.0 mm
05:50 AM 48.5°F9.2°C 36.5°F2.5°C 63% 3.5 mph NE5.6 kmh NE 8.0 mph12.9 kmh 29.99 in1015.6 mb 0.00 in0.0 mm 0.00 in0.0 mm 0.00 in0.0 mm
05:55 AM 48.5°F9.2°C 36.5°F2.5°C 63% 2.3 mph NE3.7 kmh NE 8.0 mph12.9 kmh 29.98 in1015.2 mb 0.00 in0.0 mm 0.00 in0.0 mm 0.00 in0.0 mm
06:00 AM 48.5°F9.2°C 36.9°F2.7°C 64% 1.6 mph NNE2.6 kmh NNE 4.0 mph6.4 kmh 29.99 in1015.6 mb 0.00 in0.0 mm 0.00 in0.0 mm 0.00 in0.0 mm
06:05 AM 48.5°F9.2°C 36.9°F2.7°C 64% 0.9 mph NE1.4 kmh NE 4.0 mph6.4 kmh 29.98 in1015.2 mb 0.00 in0.0 mm 0.00 in0.0 mm 0.00 in0.0 mm
06:10 AM 48.5°F9.2°C 36.9°F2.7°C 64% 0.3 mph NE0.5 kmh NE 4.0 mph6.4 kmh 29.99 in1015.6 mb 0.00 in0.0 mm 0.00 in0.0 mm 0.00 in0.0 mm
06:15 AM 48.6°F9.2°C 37.0°F2.8°C 64% 0.5 mph NE0.8 kmh NE 4.0 mph6.4 kmh 29.98 in1015.2 mb 0.00 in0.0 mm 0.00 in0.0 mm 0.00 in0.0 mm
06:20 AM 48.8°F9.3°C 36.8°F2.7°C 63% 1.1 mph NE1.8 kmh NE 5.0 mph8.0 kmh 29.99 in1015.6 mb 0.00 in0.0 mm 0.00 in0.0 mm 0.00 in0.0 mm
06:25 AM 48.8°F9.3°C 36.8°F2.7°C 63% 1.6 mph NE2.6 kmh NE 5.0 mph8.0 kmh 29.99 in1015.6 mb 0.00 in0.0 mm 0.00 in0.0 mm 0.00 in0.0 mm
06:30 AM 49.1°F9.5°C 37.0°F2.8°C 63% 1.6 mph NE2.6 kmh NE 5.0 mph8.0 kmh 30.00 in1015.9 mb 0.00 in0.0 mm 0.00 in0.0 mm 0.00 in0.0 mm
06:35 AM 49.0°F9.4°C 36.5°F2.5°C 62% 1.5 mph NE2.4 kmh NE 7.0 mph11.3 kmh 30.00 in1015.9 mb 0.00 in0.0 mm 0.00 in0.0 mm 0.00 in0.0 mm
06:40 AM 48.8°F9.3°C 36.8°F2.7°C 63% 2.3 mph NE3.7 kmh NE 7.0 mph11.3 kmh 30.00 in1015.9 mb 0.00 in0.0 mm 0.00 in0.0 mm 0.00 in0.0 mm
06:45 AM 48.5°F9.2°C 36.9°F2.7°C 64% 2.9 mph NE4.7 kmh NE 7.0 mph11.3 kmh 30.00 in1015.9 mb 0.00 in0.0 mm 0.00 in0.0 mm 0.00 in0.0 mm
06:50 AM 48.5°F9.2°C 36.9°F2.7°C 64% 3.0 mph NE4.8 kmh NE 6.0 mph9.7 kmh 30.00 in1015.9 mb 0.00 in0.0 mm 0.00 in0.0 mm 0.00 in0.0 mm
06:55 AM 48.7°F9.3°C 36.7°F2.6°C 63% 3.6 mph NE5.8 kmh NE 9.0 mph14.5 kmh 30.00 in1015.9 mb 0.00 in0.0 mm 0.00 in0.0 mm 0.00 in0.0 mm
07:00 AM 48.8°F9.3°C 36.4°F2.4°C 62% 4.6 mph NE7.4 kmh NE 10.0 mph16.1 kmh 30.00 in1015.9 mb 0.00 in0.0 mm 0.00 in0.0 mm 0.00 in0.0 mm
07:05 AM 48.8°F9.3°C 36.4°F2.4°C 62% 5.2 mph NE8.4 kmh NE 10.0 mph16.1 kmh 30.00 in1015.9 mb 0.00 in0.0 mm 0.00 in0.0 mm 0.00 in0.0 mm
07:10 AM 48.9°F9.4°C 36.9°F2.7°C 63% 5.7 mph NE9.2 kmh NE 10.0 mph16.1 kmh 30.00 in1015.9 mb 0.00 in0.0 mm 0.00 in0.0 mm 0.00 in0.0 mm
07:15 AM 49.2°F9.6°C 36.7°F2.6°C 62% 6.1 mph NE9.8 kmh NE 12.0 mph19.3 kmh 30.00 in1015.9 mb 0.00 in0.0 mm 0.00 in0.0 mm 0.00 in0.0 mm
07:20 AM 49.0°F9.4°C 36.5°F2.5°C 62% 6.6 mph NE10.6 kmh NE 12.0 mph19.3 kmh 30.00 in1015.9 mb 0.00 in0.0 mm 0.00 in0.0 mm 0.00 in0.0 mm
07:25 AM 48.9°F9.4°C 36.4°F2.4°C 62% 7.0 mph NE11.3 kmh NE 11.0 mph17.7 kmh 30.00 in1015.9 mb 0.00 in0.0 mm 0.00 in0.0 mm 0.00 in0.0 mm
07:30 AM 48.8°F9.3°C 36.4°F2.4°C 62% 6.7 mph NE10.8 kmh NE 10.0 mph16.1 kmh 30.01 in1016.3 mb 0.00 in0.0 mm 0.00 in0.0 mm 0.00 in0.0 mm
07:35 AM 48.8°F9.3°C 36.8°F2.7°C 63% 6.0 mph NE9.7 kmh NE 10.0 mph16.1 kmh 30.01 in1016.3 mb 0.00 in0.0 mm 0.00 in0.0 mm 0.00 in0.0 mm
07:40 AM 48.7°F9.3°C 36.7°F2.6°C 63% 5.2 mph NE8.4 kmh NE 9.0 mph14.5 kmh 30.00 in1015.9 mb 0.00 in0.0 mm 0.00 in0.0 mm 0.00 in0.0 mm
07:45 AM 48.7°F9.3°C 36.7°F2.6°C 63% 4.1 mph NE6.6 kmh NE 7.0 mph11.3 kmh 30.01 in1016.3 mb 0.00 in0.0 mm 0.00 in0.0 mm 0.00 in0.0 mm
07:50 AM 48.8°F9.3°C 37.2°F2.9°C 64% 3.2 mph NE5.1 kmh NE 7.0 mph11.3 kmh 30.01 in1016.3 mb 0.00 in0.0 mm 0.00 in0.0 mm 0.00 in0.0 mm
07:55 AM 49.0°F9.4°C 37.3°F2.9°C 64% 3.0 mph NE4.8 kmh NE 7.0 mph11.3 kmh 30.01 in1016.3 mb 0.00 in0.0 mm 0.00 in0.0 mm 0.00 in0.0 mm
08:00 AM 49.1°F9.5°C 37.0°F2.8°C 63% 2.6 mph NE4.2 kmh NE 6.0 mph9.7 kmh 30.01 in1016.3 mb 0.00 in0.0 mm 0.00 in0.0 mm 0.00 in0.0 mm
08:05 AM 48.9°F9.4°C 37.3°F2.9°C 64% 2.2 mph NE3.5 kmh NE 6.0 mph9.7 kmh 30.01 in1016.3 mb 0.00 in0.0 mm 0.00 in0.0 mm 0.00 in0.0 mm
08:10 AM 48.9°F9.4°C 37.3°F2.9°C 64% 1.7 mph NE2.7 kmh NE 3.0 mph4.8 kmh 30.01 in1016.3 mb 0.00 in0.0 mm 0.00 in0.0 mm 0.00 in0.0 mm
08:15 AM 49.0°F9.4°C 37.7°F3.2°C 65% 1.1 mph NE1.8 kmh NE 3.0 mph4.8 kmh 30.01 in1016.3 mb 0.00 in0.0 mm 0.00 in0.0 mm 0.00 in0.0 mm
08:20 AM 49.3°F9.6°C 38.0°F3.3°C 65% 1.0 mph NE1.6 kmh NE 4.0 mph6.4 kmh 30.01 in1016.3 mb 0.00 in0.0 mm 0.00 in0.0 mm 0.00 in0.0 mm
08:25 AM 49.6°F9.8°C 37.9°F3.3°C 64% 1.0 mph NE1.6 kmh NE 4.0 mph6.4 kmh 30.01 in1016.3 mb 0.00 in0.0 mm 0.00 in0.0 mm 0.00 in0.0 mm
08:30 AM 49.7°F9.8°C 38.0°F3.3°C 64% 0.8 mph NE1.3 kmh NE 2.0 mph3.2 kmh 30.01 in1016.3 mb 0.00 in0.0 mm 0.00 in0.0 mm 0.00 in0.0 mm
08:35 AM 49.7°F9.8°C 38.0°F3.3°C 64% 0.3 mph NNE0.5 kmh NNE 2.0 mph3.2 kmh 30.01 in1016.3 mb 0.00 in0.0 mm 0.00 in0.0 mm 0.00 in0.0 mm
08:40 AM 49.8°F9.9°C 38.1°F3.4°C 64% Calm Calm 3.0 mph4.8 kmh 30.02 in1016.6 mb 0.00 in0.0 mm 0.00 in0.0 mm 0.00 in0.0 mm
08:45 AM 50.0°F10.0°C 38.7°F3.7°C 65% 0.1 mph NE0.2 kmh NE 5.0 mph8.0 kmh 30.02 in1016.6 mb 0.00 in0.0 mm 0.00 in0.0 mm 0.00 in0.0 mm
08:50 AM 50.1°F10.1°C 38.8°F3.8°C 65% 0.6 mph NE1.0 kmh NE 5.0 mph8.0 kmh 30.02 in1016.6 mb 0.00 in0.0 mm 0.00 in0.0 mm 0.00 in0.0 mm
08:55 AM 50.2°F10.1°C 38.9°F3.8°C 65% 1.4 mph NNE2.3 kmh NNE 6.0 mph9.7 kmh 30.02 in1016.6 mb 0.00 in0.0 mm 0.00 in0.0 mm 0.00 in0.0 mm
09:00 AM 49.3°F9.6°C 39.2°F4.0°C 68% 1.9 mph W3.1 kmh W 6.0 mph9.7 kmh 30.02 in1016.6 mb 0.00 in0.0 mm 0.00 in0.0 mm 0.00 in0.0 mm
09:05 AM 48.9°F9.4°C 39.2°F4.0°C 69% 1.7 mph WSW2.7 kmh WSW 5.0 mph8.0 kmh 30.02 in1016.6 mb 0.00 in0.0 mm 0.00 in0.0 mm 0.00 in0.0 mm
09:10 AM 48.8°F9.3°C 39.4°F4.1°C 70% 1.2 mph WSW1.9 kmh WSW 3.0 mph4.8 kmh 30.03 in1016.9 mb 0.00 in0.0 mm 0.00 in0.0 mm 0.00 in0.0 mm
09:15 AM 48.6°F9.2°C 39.3°F4.1°C 70% 0.5 mph WSW0.8 kmh WSW 3.0 mph4.8 kmh 30.03 in1016.9 mb 0.00 in0.0 mm 0.00 in0.0 mm 0.00 in0.0 mm
09:20 AM 48.4°F9.1°C 39.4°F4.1°C 71% Calm Calm 3.0 mph4.8 kmh 30.03 in1016.9 mb 0.00 in0.0 mm 0.00 in0.0 mm 0.00 in0.0 mm
09:25 AM 48.3°F9.1°C 39.3°F4.1°C 71% 0.2 mph WSW0.3 kmh WSW 3.0 mph4.8 kmh 30.03 in1016.9 mb 0.00 in0.0 mm 0.00 in0.0 mm 0.00 in0.0 mm
09:30 AM 48.1°F8.9°C 39.1°F3.9°C 71% 0.8 mph WSW1.3 kmh WSW 7.0 mph11.3 kmh 30.03 in1016.9 mb 0.00 in0.0 mm 0.00 in0.0 mm 0.00 in0.0 mm
09:35 AM 48.2°F9.0°C 39.6°F4.2°C 72% 1.2 mph WSW1.9 kmh WSW 7.0 mph11.3 kmh 30.03 in1016.9 mb 0.00 in0.0 mm 0.00 in0.0 mm 0.00 in0.0 mm
09:40 AM 48.6°F9.2°C 40.0°F4.4°C 72% 0.9 mph W1.4 kmh W 2.0 mph3.2 kmh 30.03 in1016.9 mb 0.00 in0.0 mm 0.00 in0.0 mm 0.00 in0.0 mm
09:45 AM 49.1°F9.5°C 40.5°F4.7°C 72% 0.3 mph NNE0.5 kmh NNE 2.0 mph3.2 kmh 30.03 in1016.9 mb 0.00 in0.0 mm 0.00 in0.0 mm 0.00 in0.0 mm
09:50 AM 49.4°F9.7°C 40.0°F4.4°C 70% 0.1 mph WSW0.2 kmh WSW 3.0 mph4.8 kmh 30.03 in1016.9 mb 0.00 in0.0 mm 0.00 in0.0 mm 0.00 in0.0 mm
09:55 AM 49.4°F9.7°C 40.0°F4.4°C 70% 0.6 mph WSW1.0 kmh WSW 5.0 mph8.0 kmh 30.03 in1016.9 mb 0.00 in0.0 mm 0.00 in0.0 mm 0.00 in0.0 mm
10:00 AM 48.9°F9.4°C 40.3°F4.6°C 72% 1.6 mph WSW2.6 kmh WSW 6.0 mph9.7 kmh 30.03 in1016.9 mb 0.00 in0.0 mm 0.00 in0.0 mm 0.00 in0.0 mm
10:05 AM 48.8°F9.3°C 40.2°F4.6°C 72% 2.8 mph WSW4.5 kmh WSW 6.0 mph9.7 kmh 30.04 in1017.3 mb 0.00 in0.0 mm 0.00 in0.0 mm 0.00 in0.0 mm
10:10 AM 48.7°F9.3°C 39.7°F4.3°C 71% 3.3 mph WSW5.3 kmh WSW 6.0 mph9.7 kmh 30.04 in1017.3 mb 0.00 in0.0 mm 0.00 in0.0 mm 0.00 in0.0 mm
10:15 AM 48.8°F9.3°C 40.2°F4.6°C 72% 3.1 mph WSW5.0 kmh WSW 5.0 mph8.0 kmh 30.04 in1017.3 mb 0.00 in0.0 mm 0.00 in0.0 mm 0.00 in0.0 mm
10:20 AM 48.9°F9.4°C 40.3°F4.6°C 72% 2.4 mph WSW3.9 kmh WSW 5.0 mph8.0 kmh 30.04 in1017.3 mb 0.00 in0.0 mm 0.00 in0.0 mm 0.00 in0.0 mm
10:25 AM 48.9°F9.4°C 39.9°F4.4°C 71% 1.2 mph SW1.9 kmh SW 3.0 mph4.8 kmh 30.04 in1017.3 mb 0.00 in0.0 mm 0.00 in0.0 mm 0.00 in0.0 mm
10:30 AM 48.8°F9.3°C 39.8°F4.3°C 71% 0.8 mph SW1.3 kmh SW 4.0 mph6.4 kmh 30.05 in1017.6 mb 0.00 in0.0 mm 0.00 in0.0 mm 0.00 in0.0 mm
10:35 AM 48.8°F9.3°C 40.2°F4.6°C 72% 1.4 mph SW2.3 kmh SW 5.0 mph8.0 kmh 30.04 in1017.3 mb 0.00 in0.0 mm 0.00 in0.0 mm 0.00 in0.0 mm
10:40 AM 48.8°F9.3°C 40.2°F4.6°C 72% 1.8 mph SW2.9 kmh SW 5.0 mph8.0 kmh 30.04 in1017.3 mb 0.00 in0.0 mm 0.00 in0.0 mm 0.00 in0.0 mm
10:45 AM 49.0°F9.4°C 40.7°F4.8°C 73% 1.4 mph SW2.3 kmh SW 5.0 mph8.0 kmh 30.04 in1017.3 mb 0.00 in0.0 mm 0.00 in0.0 mm 0.00 in0.0 mm
10:50 AM 49.3°F9.6°C 40.7°F4.8°C 72% 0.6 mph SW1.0 kmh SW 4.0 mph6.4 kmh 30.04 in1017.3 mb 0.00 in0.0 mm 0.00 in0.0 mm 0.00 in0.0 mm
10:55 AM 49.6°F9.8°C 40.6°F4.8°C 71% 0.1 mph WSW0.2 kmh WSW 2.0 mph3.2 kmh 30.04 in1017.3 mb 0.00 in0.0 mm 0.00 in0.0 mm 0.00 in0.0 mm
11:00 AM 49.9°F9.9°C 40.5°F4.7°C 70% Calm Calm 3.0 mph4.8 kmh 30.04 in1017.3 mb 0.00 in0.0 mm 0.00 in0.0 mm 0.00 in0.0 mm
11:05 AM 50.0°F10.0°C 40.2°F4.6°C 69% 0.3 mph SW0.5 kmh SW 4.0 mph6.4 kmh 30.04 in1017.3 mb 0.00 in0.0 mm 0.00 in0.0 mm 0.00 in0.0 mm
11:10 AM 50.1°F10.1°C 40.3°F4.6°C 69% 1.2 mph SW1.9 kmh SW 4.0 mph6.4 kmh 30.04 in1017.3 mb 0.00 in0.0 mm 0.00 in0.0 mm 0.00 in0.0 mm
11:15 AM 50.5°F10.3°C 40.7°F4.8°C 69% 1.9 mph SW3.1 kmh SW 5.0 mph8.0 kmh 30.04 in1017.3 mb 0.00 in0.0 mm 0.00 in0.0 mm 0.00 in0.0 mm
11:20 AM 51.0°F10.6°C 40.8°F4.9°C 68% 1.9 mph WSW3.1 kmh WSW 5.0 mph8.0 kmh 30.04 in1017.3 mb 0.00 in0.0 mm 0.00 in0.0 mm 0.00 in0.0 mm
11:25 AM 51.7°F10.9°C 41.1°F5.1°C 67% 1.8 mph WSW2.9 kmh WSW 6.0 mph9.7 kmh 30.04 in1017.3 mb 0.00 in0.0 mm 0.00 in0.0 mm 0.00 in0.0 mm
11:30 AM 52.4°F11.3°C 41.4°F5.2°C 66% 1.9 mph WSW3.1 kmh WSW 6.0 mph9.7 kmh 30.04 in1017.3 mb 0.00 in0.0 mm 0.00 in0.0 mm 0.00 in0.0 mm
11:35 AM 53.7°F12.1°C 41.4°F5.2°C 63% 1.6 mph WSW2.6 kmh WSW 4.0 mph6.4 kmh 30.04 in1017.3 mb 0.00 in0.0 mm 0.00 in0.0 mm 0.00 in0.0 mm
11:40 AM 54.0°F12.2°C 41.7°F5.4°C 63% 1.1 mph WSW1.8 kmh WSW 5.0 mph8.0 kmh 30.03 in1016.9 mb 0.00 in0.0 mm 0.00 in0.0 mm 0.00 in0.0 mm
11:45 AM 54.6°F12.6°C 41.8°F5.4°C 62% 1.0 mph WSW1.6 kmh WSW 5.0 mph8.0 kmh 30.03 in1016.9 mb 0.00 in0.0 mm 0.00 in0.0 mm 0.00 in0.0 mm
11:50 AM 54.7°F12.6°C 41.5°F5.3°C 61% 1.0 mph SW1.6 kmh SW 4.0 mph6.4 kmh 30.04 in1017.3 mb 0.00 in0.0 mm 0.00 in0.0 mm 0.00 in0.0 mm
11:55 AM 54.9°F12.7°C 41.3°F5.2°C 60% 1.2 mph WSW1.9 kmh WSW 5.0 mph8.0 kmh 30.04 in1017.3 mb 0.00 in0.0 mm 0.00 in0.0 mm 0.00 in0.0 mm
12:00 PM 54.9°F12.7°C 41.3°F5.2°C 60% 2.0 mph WSW3.2 kmh WSW 6.0 mph9.7 kmh 30.04 in1017.3 mb 0.00 in0.0 mm 0.00 in0.0 mm 0.00 in0.0 mm
12:05 PM 55.0°F12.8°C 41.8°F5.4°C 61% 2.8 mph WSW4.5 kmh WSW 6.0 mph9.7 kmh 30.03 in1016.9 mb 0.00 in0.0 mm 0.00 in0.0 mm 0.00 in0.0 mm
12:15 PM 54.3°F12.4°C 41.6°F5.3°C 62% 2.1 mph WSW3.4 kmh WSW 6.0 mph9.7 kmh 30.03 in1016.9 mb 0.00 in0.0 mm 0.00 in0.0 mm 0.00 in0.0 mm
12:20 PM 54.3°F12.4°C 42.4°F5.8°C 64% 2.6 mph WSW4.2 kmh WSW 6.0 mph9.7 kmh 30.03 in1016.9 mb 0.00 in0.0 mm 0.00 in0.0 mm 0.00 in0.0 mm
12:25 PM 54.5°F12.5°C 42.2°F5.7°C 63% 2.6 mph WSW4.2 kmh WSW 6.0 mph9.7 kmh 30.03 in1016.9 mb 0.00 in0.0 mm 0.00 in0.0 mm 0.00 in0.0 mm
12:30 PM 54.7°F12.6°C 42.8°F6.0°C 64% 2.1 mph WSW3.4 kmh WSW 6.0 mph9.7 kmh 30.03 in1016.9 mb 0.00 in0.0 mm 0.00 in0.0 mm 0.00 in0.0 mm
12:35 PM 55.1°F12.8°C 42.7°F5.9°C 63% 1.5 mph WSW2.4 kmh WSW 3.0 mph4.8 kmh 30.03 in1016.9 mb 0.00 in0.0 mm 0.00 in0.0 mm 0.00 in0.0 mm
12:40 PM 55.3°F12.9°C 42.9°F6.1°C 63% 0.5 mph SW0.8 kmh SW 4.0 mph6.4 kmh 30.03 in1016.9 mb 0.00 in0.0 mm 0.00 in0.0 mm 0.00 in0.0 mm
12:45 PM 55.2°F12.9°C 42.8°F6.0°C 63% 0.5 mph SW0.8 kmh SW 4.0 mph6.4 kmh 30.02 in1016.6 mb 0.00 in0.0 mm 0.00 in0.0 mm 0.00 in0.0 mm
12:50 PM 55.4°F13.0°C 42.6°F5.9°C 62% 1.0 mph WSW1.6 kmh WSW 4.0 mph6.4 kmh 30.02 in1016.6 mb 0.00 in0.0 mm 0.00 in0.0 mm 0.00 in0.0 mm
12:55 PM 55.7°F13.2°C 42.5°F5.8°C 61% 1.0 mph WSW1.6 kmh WSW 3.0 mph4.8 kmh 30.02 in1016.6 mb 0.00 in0.0 mm 0.00 in0.0 mm 0.00 in0.0 mm
01:00 PM 56.0°F13.3°C 42.7°F5.9°C 61% 1.0 mph WSW1.6 kmh WSW 3.0 mph4.8 kmh 30.02 in1016.6 mb 0.00 in0.0 mm 0.00 in0.0 mm 0.00 in0.0 mm
01:05 PM 56.2°F13.4°C 41.2°F5.1°C 57% 1.0 mph NE1.6 kmh NE 8.0 mph12.9 kmh 30.02 in1016.6 mb 0.00 in0.0 mm 0.00 in0.0 mm 0.00 in0.0 mm
01:10 PM 56.3°F13.5°C 40.8°F4.9°C 56% 1.5 mph NE2.4 kmh NE 8.0 mph12.9 kmh 30.02 in1016.6 mb 0.00 in0.0 mm 0.00 in0.0 mm 0.00 in0.0 mm
01:15 PM 56.2°F13.4°C 40.7°F4.8°C 56% 2.3 mph NE3.7 kmh NE 9.0 mph14.5 kmh 30.02 in1016.6 mb 0.00 in0.0 mm 0.00 in0.0 mm 0.00 in0.0 mm
01:20 PM 56.0°F13.3°C 40.1°F4.5°C 55% 3.2 mph NE5.1 kmh NE 12.0 mph19.3 kmh 30.02 in1016.6 mb 0.00 in0.0 mm 0.00 in0.0 mm 0.00 in0.0 mm
01:25 PM 55.8°F13.2°C 39.9°F4.4°C 55% 4.8 mph NE7.7 kmh NE 14.0 mph22.5 kmh 30.02 in1016.6 mb 0.00 in0.0 mm 0.00 in0.0 mm 0.00 in0.0 mm
01:30 PM 55.6°F13.1°C 40.1°F4.5°C 56% 6.4 mph NE10.3 kmh NE 14.0 mph22.5 kmh 30.02 in1016.6 mb 0.00 in0.0 mm 0.00 in0.0 mm 0.00 in0.0 mm
01:35 PM 55.6°F13.1°C 40.1°F4.5°C 56% 7.0 mph NE11.3 kmh NE 14.0 mph22.5 kmh 30.01 in1016.3 mb 0.00 in0.0 mm 0.00 in0.0 mm 0.00 in0.0 mm
01:40 PM 55.6°F13.1°C 40.1°F4.5°C 56% 7.0 mph NE11.3 kmh NE 12.0 mph19.3 kmh 30.01 in1016.3 mb 0.00 in0.0 mm 0.00 in0.0 mm 0.00 in0.0 mm
01:45 PM 55.6°F13.1°C 39.7°F4.3°C 55% 7.1 mph NE11.4 kmh NE 14.0 mph22.5 kmh 30.01 in1016.3 mb 0.00 in0.0 mm 0.00 in0.0 mm 0.00 in0.0 mm
01:50 PM 55.6°F13.1°C 39.7°F4.3°C 55% 7.6 mph NE12.2 kmh NE 15.0 mph24.1 kmh 30.01 in1016.3 mb 0.00 in0.0 mm 0.00 in0.0 mm 0.00 in0.0 mm
01:55 PM 55.5°F13.1°C 39.6°F4.2°C 55% 8.5 mph NE13.7 kmh NE 15.0 mph24.1 kmh 30.01 in1016.3 mb 0.00 in0.0 mm 0.00 in0.0 mm 0.00 in0.0 mm
02:00 PM 55.6°F13.1°C 40.1°F4.5°C 56% 8.8 mph NE14.2 kmh NE 15.0 mph24.1 kmh 30.01 in1016.3 mb 0.00 in0.0 mm 0.00 in0.0 mm 0.00 in0.0 mm
02:05 PM 55.5°F13.1°C 40.0°F4.4°C 56% 7.9 mph NE12.7 kmh NE 14.0 mph22.5 kmh 30.01 in1016.3 mb 0.00 in0.0 mm 0.00 in0.0 mm 0.00 in0.0 mm
02:10 PM 55.5°F13.1°C 40.0°F4.4°C 56% 6.9 mph NE11.1 kmh NE 14.0 mph22.5 kmh 30.01 in1016.3 mb 0.00 in0.0 mm 0.00 in0.0 mm 0.00 in0.0 mm
02:15 PM 55.6°F13.1°C 40.1°F4.5°C 56% 6.2 mph NE10.0 kmh NE 11.0 mph17.7 kmh 30.01 in1016.3 mb 0.00 in0.0 mm 0.00 in0.0 mm 0.00 in0.0 mm
02:20 PM 55.6°F13.1°C 40.1°F4.5°C 56% 5.3 mph NE8.5 kmh NE 10.0 mph16.1 kmh 30.01 in1016.3 mb 0.00 in0.0 mm 0.00 in0.0 mm 0.00 in0.0 mm
02:25 PM 55.5°F13.1°C 40.0°F4.4°C 56% 4.5 mph NE7.2 kmh NE 9.0 mph14.5 kmh 30.01 in1016.3 mb 0.00 in0.0 mm 0.00 in0.0 mm 0.00 in0.0 mm
02:30 PM 55.4°F13.0°C 40.0°F4.4°C 56% 4.6 mph NE7.4 kmh NE 9.0 mph14.5 kmh 30.01 in1016.3 mb 0.00 in0.0 mm 0.00 in0.0 mm 0.00 in0.0 mm
02:35 PM 55.5°F13.1°C 40.0°F4.4°C 56% 4.7 mph NE7.6 kmh NE 9.0 mph14.5 kmh 30.01 in1016.3 mb 0.00 in0.0 mm 0.00 in0.0 mm 0.00 in0.0 mm
02:40 PM 55.4°F13.0°C 40.0°F4.4°C 56% 4.2 mph NE6.8 kmh NE 11.0 mph17.7 kmh 30.01 in1016.3 mb 0.00 in0.0 mm 0.00 in0.0 mm 0.00 in0.0 mm
02:45 PM 55.4°F13.0°C 40.0°F4.4°C 56% 4.9 mph NE7.9 kmh NE 14.0 mph22.5 kmh 30.01 in1016.3 mb 0.00 in0.0 mm 0.00 in0.0 mm 0.00 in0.0 mm
02:50 PM 55.5°F13.1°C 39.6°F4.2°C 55% 6.4 mph NE10.3 kmh NE 14.0 mph22.5 kmh 30.01 in1016.3 mb 0.00 in0.0 mm 0.00 in0.0 mm 0.00 in0.0 mm
02:55 PM 55.4°F13.0°C 40.0°F4.4°C 56% 7.0 mph NE11.3 kmh NE 12.0 mph19.3 kmh 30.01 in1016.3 mb 0.00 in0.0 mm 0.00 in0.0 mm 0.00 in0.0 mm
03:00 PM 55.4°F13.0°C 40.0°F4.4°C 56% 7.3 mph NE11.7 kmh NE 12.0 mph19.3 kmh 30.02 in1016.6 mb 0.00 in0.0 mm 0.00 in0.0 mm 0.00 in0.0 mm
03:05 PM 55.6°F13.1°C 40.1°F4.5°C 56% 7.3 mph NE11.7 kmh NE 12.0 mph19.3 kmh 30.02 in1016.6 mb 0.00 in0.0 mm 0.00 in0.0 mm 0.00 in0.0 mm
03:10 PM 55.6°F13.1°C 40.1°F4.5°C 56% 6.5 mph NE10.5 kmh NE 11.0 mph17.7 kmh 30.02 in1016.6 mb 0.00 in0.0 mm 0.00 in0.0 mm 0.00 in0.0 mm
03:15 PM 55.5°F13.1°C 40.0°F4.4°C 56% 6.3 mph NE10.1 kmh NE 12.0 mph19.3 kmh 30.02 in1016.6 mb 0.00 in0.0 mm 0.00 in0.0 mm 0.00 in0.0 mm
03:20 PM 55.4°F13.0°C 40.0°F4.4°C 56% 6.8 mph NE10.9 kmh NE 12.0 mph19.3 kmh 30.02 in1016.6 mb 0.00 in0.0 mm 0.00 in0.0 mm 0.00 in0.0 mm
03:25 PM 55.3°F12.9°C 39.9°F4.4°C 56% 7.0 mph NE11.3 kmh NE 11.0 mph17.7 kmh 30.02 in1016.6 mb 0.00 in0.0 mm 0.00 in0.0 mm 0.00 in0.0 mm
03:30 PM 55.3°F12.9°C 39.9°F4.4°C 56% 6.5 mph NE10.5 kmh NE 12.0 mph19.3 kmh 30.02 in1016.6 mb 0.00 in0.0 mm 0.00 in0.0 mm 0.00 in0.0 mm
03:35 PM 55.1°F12.8°C 39.7°F4.3°C 56% 6.2 mph NE10.0 kmh NE 14.0 mph22.5 kmh 30.02 in1016.6 mb 0.00 in0.0 mm 0.00 in0.0 mm 0.00 in0.0 mm
03:40 PM 54.9°F12.7°C 39.5°F4.2°C 56% 7.2 mph NE11.6 kmh NE 14.0 mph22.5 kmh 30.02 in1016.6 mb 0.00 in0.0 mm 0.00 in0.0 mm 0.00 in0.0 mm
03:45 PM 54.7°F12.6°C 39.3°F4.1°C 56% 8.5 mph NE13.7 kmh NE 14.0 mph22.5 kmh 30.03 in1016.9 mb 0.00 in0.0 mm 0.00 in0.0 mm 0.00 in0.0 mm
03:50 PM 54.6°F12.6°C 39.7°F4.3°C 57% 8.8 mph NE14.2 kmh NE 14.0 mph22.5 kmh 30.03 in1016.9 mb 0.00 in0.0 mm 0.00 in0.0 mm 0.00 in0.0 mm
03:55 PM 54.5°F12.5°C 39.6°F4.2°C 57% 8.4 mph NE13.5 kmh NE 14.0 mph22.5 kmh 30.03 in1016.9 mb 0.00 in0.0 mm 0.00 in0.0 mm 0.00 in0.0 mm
04:00 PM 54.3°F12.4°C 39.4°F4.1°C 57% 8.1 mph NE13.0 kmh NE 14.0 mph22.5 kmh 30.03 in1016.9 mb 0.00 in0.0 mm 0.00 in0.0 mm 0.00 in0.0 mm
04:05 PM 54.3°F12.4°C 39.4°F4.1°C 57% 7.6 mph NE12.2 kmh NE 14.0 mph22.5 kmh 30.03 in1016.9 mb 0.00 in0.0 mm 0.00 in0.0 mm 0.00 in0.0 mm
04:10 PM 54.1°F12.3°C 39.6°F4.2°C 58% 7.0 mph NE11.3 kmh NE 11.0 mph17.7 kmh 30.03 in1016.9 mb 0.00 in0.0 mm 0.00 in0.0 mm 0.00 in0.0 mm
04:15 PM 54.1°F12.3°C 39.6°F4.2°C 58% 6.7 mph NE10.8 kmh NE 12.0 mph19.3 kmh 30.03 in1016.9 mb 0.00 in0.0 mm 0.00 in0.0 mm 0.00 in0.0 mm
04:20 PM 53.9°F12.2°C 39.5°F4.2°C 58% 6.4 mph NE10.3 kmh NE 12.0 mph19.3 kmh 30.03 in1016.9 mb 0.00 in0.0 mm 0.00 in0.0 mm 0.00 in0.0 mm
04:25 PM 53.8°F12.1°C 39.4°F4.1°C 58% 6.1 mph NE9.8 kmh NE 9.0 mph14.5 kmh 30.04 in1017.3 mb 0.00 in0.0 mm 0.00 in0.0 mm 0.00 in0.0 mm
04:30 PM 53.6°F12.0°C 39.6°F4.2°C 59% 5.9 mph NE9.5 kmh NE 11.0 mph17.7 kmh 30.04 in1017.3 mb 0.00 in0.0 mm 0.00 in0.0 mm 0.00 in0.0 mm
04:35 PM 53.4°F11.9°C 39.4°F4.1°C 59% 5.9 mph NE9.5 kmh NE 11.0 mph17.7 kmh 30.04 in1017.3 mb 0.00 in0.0 mm 0.00 in0.0 mm 0.00 in0.0 mm
04:40 PM 53.2°F11.8°C 39.7°F4.3°C 60% 6.4 mph NE10.3 kmh NE 11.0 mph17.7 kmh 30.04 in1017.3 mb 0.00 in0.0 mm 0.00 in0.0 mm 0.00 in0.0 mm
04:45 PM 53.0°F11.7°C 39.5°F4.2°C 60% 6.4 mph NE10.3 kmh NE 10.0 mph16.1 kmh 30.04 in1017.3 mb 0.00 in0.0 mm 0.00 in0.0 mm 0.00 in0.0 mm
04:50 PM 52.9°F11.6°C 39.4°F4.1°C 60% 5.5 mph NE8.9 kmh NE 14.0 mph22.5 kmh 30.04 in1017.3 mb 0.00 in0.0 mm 0.00 in0.0 mm 0.00 in0.0 mm
04:55 PM 52.8°F11.6°C 39.3°F4.1°C 60% 5.5 mph NE8.9 kmh NE 14.0 mph22.5 kmh 30.04 in1017.3 mb 0.00 in0.0 mm 0.00 in0.0 mm 0.00 in0.0 mm
05:00 PM 52.8°F11.6°C 39.3°F4.1°C 60% 6.5 mph NE10.5 kmh NE 12.0 mph19.3 kmh 30.04 in1017.3 mb 0.00 in0.0 mm 0.00 in0.0 mm 0.00 in0.0 mm
05:05 PM 52.8°F11.6°C 39.3°F4.1°C 60% 7.0 mph NE11.3 kmh NE 14.0 mph22.5 kmh 30.04 in1017.3 mb 0.00 in0.0 mm 0.00 in0.0 mm 0.00 in0.0 mm
05:10 PM 52.7°F11.5°C 39.2°F4.0°C 60% 7.0 mph NE11.3 kmh NE 14.0 mph22.5 kmh 30.04 in1017.3 mb 0.00 in0.0 mm 0.00 in0.0 mm 0.00 in0.0 mm
05:15 PM 52.6°F11.4°C 39.1°F3.9°C 60% 7.0 mph NE11.3 kmh NE 14.0 mph22.5 kmh 30.04 in1017.3 mb 0.00 in0.0 mm 0.00 in0.0 mm 0.00 in0.0 mm
05:20 PM 52.5°F11.4°C 39.0°F3.9°C 60% 7.1 mph NE11.4 kmh NE 14.0 mph22.5 kmh 30.04 in1017.3 mb 0.00 in0.0 mm 0.00 in0.0 mm 0.00 in0.0 mm
05:25 PM 52.5°F11.4°C 39.0°F3.9°C 60% 7.6 mph NE12.2 kmh NE 14.0 mph22.5 kmh 30.04 in1017.3 mb 0.00 in0.0 mm 0.00 in0.0 mm 0.00 in0.0 mm
05:30 PM 52.5°F11.4°C 39.0°F3.9°C 60% 8.0 mph NE12.9 kmh NE 12.0 mph19.3 kmh 30.05 in1017.6 mb 0.00 in0.0 mm 0.00 in0.0 mm 0.00 in0.0 mm
05:35 PM 52.5°F11.4°C 39.0°F3.9°C 60% 7.7 mph NE12.4 kmh NE 13.0 mph20.9 kmh 30.05 in1017.6 mb 0.00 in0.0 mm 0.00 in0.0 mm 0.00 in0.0 mm
05:40 PM 52.6°F11.4°C 39.1°F3.9°C 60% 7.5 mph NE12.1 kmh NE 14.0 mph22.5 kmh 30.05 in1017.6 mb 0.00 in0.0 mm 0.00 in0.0 mm 0.00 in0.0 mm
05:45 PM 52.4°F11.3°C 38.9°F3.8°C 60% 7.8 mph NE12.6 kmh NE 14.0 mph22.5 kmh 30.05 in1017.6 mb 0.00 in0.0 mm 0.00 in0.0 mm 0.00 in0.0 mm
05:50 PM 52.2°F11.2°C 38.7°F3.7°C 60% 8.2 mph NE13.2 kmh NE 13.0 mph20.9 kmh 30.06 in1017.9 mb 0.00 in0.0 mm 0.00 in0.0 mm 0.00 in0.0 mm
05:55 PM 52.1°F11.2°C 39.1°F3.9°C 61% 8.3 mph NE13.4 kmh NE 13.0 mph20.9 kmh 30.05 in1017.6 mb 0.00 in0.0 mm 0.00 in0.0 mm 0.00 in0.0 mm
06:00 PM 52.1°F11.2°C 39.1°F3.9°C 61% 7.9 mph NE12.7 kmh NE 12.0 mph19.3 kmh 30.05 in1017.6 mb 0.00 in0.0 mm 0.00 in0.0 mm 0.00 in0.0 mm
06:05 PM 52.0°F11.1°C 39.0°F3.9°C 61% 7.3 mph NE11.7 kmh NE 12.0 mph19.3 kmh 30.05 in1017.6 mb 0.00 in0.0 mm 0.00 in0.0 mm 0.00 in0.0 mm
06:10 PM 51.9°F11.1°C 38.9°F3.8°C 61% 7.0 mph NE11.3 kmh NE 12.0 mph19.3 kmh 30.06 in1017.9 mb 0.00 in0.0 mm 0.00 in0.0 mm 0.00 in0.0 mm
06:15 PM 51.8°F11.0°C 38.8°F3.8°C 61% 7.0 mph NE11.3 kmh NE 12.0 mph19.3 kmh 30.06 in1017.9 mb 0.00 in0.0 mm 0.00 in0.0 mm 0.00 in0.0 mm
06:20 PM 51.6°F10.9°C 39.0°F3.9°C 62% 6.8 mph NE10.9 kmh NE 10.0 mph16.1 kmh 30.06 in1017.9 mb 0.00 in0.0 mm 0.00 in0.0 mm 0.00 in0.0 mm
06:25 PM 51.5°F10.8°C 38.9°F3.8°C 62% 6.3 mph NE10.1 kmh NE 10.0 mph16.1 kmh 30.06 in1017.9 mb 0.00 in0.0 mm 0.00 in0.0 mm 0.00 in0.0 mm
06:30 PM 51.4°F10.8°C 38.4°F3.6°C 61% 6.0 mph NE9.7 kmh NE 10.0 mph16.1 kmh 30.05 in1017.6 mb 0.00 in0.0 mm 0.00 in0.0 mm 0.00 in0.0 mm
06:35 PM 51.3°F10.7°C 38.7°F3.7°C 62% 6.0 mph NE9.7 kmh NE 10.0 mph16.1 kmh 30.06 in1017.9 mb 0.00 in0.0 mm 0.00 in0.0 mm 0.00 in0.0 mm
06:40 PM 51.2°F10.7°C 38.6°F3.7°C 62% 6.4 mph NE10.3 kmh NE 13.0 mph20.9 kmh 30.06 in1017.9 mb 0.00 in0.0 mm 0.00 in0.0 mm 0.00 in0.0 mm
06:45 PM 51.1°F10.6°C 38.5°F3.6°C 62% 6.9 mph NE11.1 kmh NE 13.0 mph20.9 kmh 30.06 in1017.9 mb 0.00 in0.0 mm 0.00 in0.0 mm 0.00 in0.0 mm
06:50 PM 50.9°F10.5°C 38.3°F3.5°C 62% 6.8 mph NE10.9 kmh NE 11.0 mph17.7 kmh 30.06 in1017.9 mb 0.00 in0.0 mm 0.00 in0.0 mm 0.00 in0.0 mm
06:55 PM 50.9°F10.5°C 38.3°F3.5°C 62% 6.3 mph NE10.1 kmh NE 9.0 mph14.5 kmh 30.06 in1017.9 mb 0.00 in0.0 mm 0.00 in0.0 mm 0.00 in0.0 mm
07:00 PM 50.7°F10.4°C 38.6°F3.7°C 63% 5.6 mph NE9.0 kmh NE 9.0 mph14.5 kmh 30.05 in1017.6 mb 0.00 in0.0 mm 0.00 in0.0 mm 0.00 in0.0 mm
07:05 PM 50.5°F10.3°C 38.4°F3.6°C 63% 5.1 mph NE8.2 kmh NE 9.0 mph14.5 kmh 30.05 in1017.6 mb 0.00 in0.0 mm 0.00 in0.0 mm 0.00 in0.0 mm
07:10 PM 50.4°F10.2°C 38.3°F3.5°C 63% 5.0 mph NE8.0 kmh NE 9.0 mph14.5 kmh 30.05 in1017.6 mb 0.00 in0.0 mm 0.00 in0.0 mm 0.00 in0.0 mm
07:15 PM 50.2°F10.1°C 38.5°F3.6°C 64% 5.0 mph NE8.0 kmh NE 9.0 mph14.5 kmh 30.05 in1017.6 mb 0.00 in0.0 mm 0.00 in0.0 mm 0.00 in0.0 mm
07:20 PM 50.2°F10.1°C 38.5°F3.6°C 64% 4.7 mph NE7.6 kmh NE 7.0 mph11.3 kmh 30.05 in1017.6 mb 0.00 in0.0 mm 0.00 in0.0 mm 0.00 in0.0 mm
07:25 PM 50.1°F10.1°C 38.4°F3.6°C 64% 4.2 mph NE6.8 kmh NE 7.0 mph11.3 kmh 30.05 in1017.6 mb 0.00 in0.0 mm 0.00 in0.0 mm 0.00 in0.0 mm
07:30 PM 50.0°F10.0°C 38.3°F3.5°C 64% 3.6 mph NE5.8 kmh NE 6.0 mph9.7 kmh 30.05 in1017.6 mb 0.00 in0.0 mm 0.00 in0.0 mm 0.00 in0.0 mm
07:35 PM 49.9°F9.9°C 38.6°F3.7°C 65% 2.9 mph NE4.7 kmh NE 6.0 mph9.7 kmh 30.06 in1017.9 mb 0.00 in0.0 mm 0.00 in0.0 mm 0.00 in0.0 mm
07:40 PM 49.9°F9.9°C 38.6°F3.7°C 65% 2.3 mph NE3.7 kmh NE 6.0 mph9.7 kmh 30.05 in1017.6 mb 0.00 in0.0 mm 0.00 in0.0 mm 0.00 in0.0 mm
07:45 PM 49.8°F9.9°C 38.5°F3.6°C 65% 2.2 mph NE3.5 kmh NE 7.0 mph11.3 kmh 30.06 in1017.9 mb 0.00 in0.0 mm 0.00 in0.0 mm 0.00 in0.0 mm
07:50 PM 50.0°F10.0°C 38.3°F3.5°C 64% 3.1 mph NE5.0 kmh NE 9.0 mph14.5 kmh 30.06 in1017.9 mb 0.00 in0.0 mm 0.00 in0.0 mm 0.00 in0.0 mm
07:55 PM 50.2°F10.1°C 38.5°F3.6°C 64% 4.6 mph NE7.4 kmh NE 10.0 mph16.1 kmh 30.06 in1017.9 mb 0.00 in0.0 mm 0.00 in0.0 mm 0.00 in0.0 mm
08:00 PM 50.5°F10.3°C 38.8°F3.8°C 64% 5.7 mph NE9.2 kmh NE 11.0 mph17.7 kmh 30.06 in1017.9 mb 0.00 in0.0 mm 0.00 in0.0 mm 0.00 in0.0 mm
08:05 PM 50.6°F10.3°C 38.9°F3.8°C 64% 5.8 mph NE9.3 kmh NE 11.0 mph17.7 kmh 30.06 in1017.9 mb 0.00 in0.0 mm 0.00 in0.0 mm 0.00 in0.0 mm
08:10 PM 50.7°F10.4°C 38.6°F3.7°C 63% 5.3 mph NE8.5 kmh NE 11.0 mph17.7 kmh 30.06 in1017.9 mb 0.00 in0.0 mm 0.00 in0.0 mm 0.00 in0.0 mm
08:15 PM 50.5°F10.3°C 38.8°F3.8°C 64% 4.4 mph NE7.1 kmh NE 11.0 mph17.7 kmh 30.06 in1017.9 mb 0.00 in0.0 mm 0.00 in0.0 mm 0.00 in0.0 mm
08:20 PM 50.3°F10.2°C 38.6°F3.7°C 64% 3.1 mph NE5.0 kmh NE 7.0 mph11.3 kmh 30.06 in1017.9 mb 0.00 in0.0 mm 0.00 in0.0 mm 0.00 in0.0 mm
08:25 PM 50.1°F10.1°C 38.4°F3.6°C 64% 2.7 mph NE4.3 kmh NE 7.0 mph11.3 kmh 30.06 in1017.9 mb 0.00 in0.0 mm 0.00 in0.0 mm 0.00 in0.0 mm
08:30 PM 50.0°F10.0°C 38.7°F3.7°C 65% 3.5 mph NE5.6 kmh NE 8.0 mph12.9 kmh 30.06 in1017.9 mb 0.00 in0.0 mm 0.00 in0.0 mm 0.00 in0.0 mm
08:35 PM 49.8°F9.9°C 38.5°F3.6°C 65% 3.7 mph NE6.0 kmh NE 8.0 mph12.9 kmh 30.07 in1018.3 mb 0.00 in0.0 mm 0.00 in0.0 mm 0.00 in0.0 mm
08:40 PM 49.8°F9.9°C 38.5°F3.6°C 65% 3.0 mph NE4.8 kmh NE 5.0 mph8.0 kmh 30.06 in1017.9 mb 0.00 in0.0 mm 0.00 in0.0 mm 0.00 in0.0 mm
08:45 PM 49.5°F9.7°C 38.6°F3.7°C 66% 2.3 mph NE3.7 kmh NE 5.0 mph8.0 kmh 30.07 in1018.3 mb 0.00 in0.0 mm 0.00 in0.0 mm 0.00 in0.0 mm
08:50 PM 49.8°F9.9°C 38.9°F3.8°C 66% 2.2 mph NE3.5 kmh NE 8.0 mph12.9 kmh 30.07 in1018.3 mb 0.00 in0.0 mm 0.00 in0.0 mm 0.00 in0.0 mm
08:55 PM 49.8°F9.9°C 38.5°F3.6°C 65% 2.8 mph NE4.5 kmh NE 8.0 mph12.9 kmh 30.07 in1018.3 mb 0.00 in0.0 mm 0.00 in0.0 mm 0.00 in0.0 mm
09:00 PM 49.7°F9.8°C 38.8°F3.8°C 66% 3.3 mph NE5.3 kmh NE 6.0 mph9.7 kmh 30.07 in1018.3 mb 0.00 in0.0 mm 0.00 in0.0 mm 0.00 in0.0 mm
09:05 PM 49.3°F9.6°C 38.4°F3.6°C 66% 2.8 mph NE4.5 kmh NE 6.0 mph9.7 kmh 30.07 in1018.3 mb 0.00 in0.0 mm 0.00 in0.0 mm 0.00 in0.0 mm
09:10 PM 48.8°F9.3°C 38.3°F3.5°C 67% 1.5 mph NE2.4 kmh NE 3.0 mph4.8 kmh 30.07 in1018.3 mb 0.00 in0.0 mm 0.00 in0.0 mm 0.00 in0.0 mm
09:15 PM 48.3°F9.1°C 38.2°F3.4°C 68% 0.6 mph NE1.0 kmh NE 5.0 mph8.0 kmh 30.08 in1018.6 mb 0.00 in0.0 mm 0.00 in0.0 mm 0.00 in0.0 mm
09:20 PM 48.0°F8.9°C 38.3°F3.5°C 69% 0.8 mph NE1.3 kmh NE 5.0 mph8.0 kmh 30.08 in1018.6 mb 0.00 in0.0 mm 0.00 in0.0 mm 0.00 in0.0 mm
09:25 PM 47.8°F8.8°C 38.1°F3.4°C 69% 1.6 mph NE2.6 kmh NE 5.0 mph8.0 kmh 30.07 in1018.3 mb 0.00 in0.0 mm 0.00 in0.0 mm 0.00 in0.0 mm
09:30 PM 47.5°F8.6°C 38.2°F3.4°C 70% 2.2 mph NE3.5 kmh NE 5.0 mph8.0 kmh 30.07 in1018.3 mb 0.00 in0.0 mm 0.00 in0.0 mm 0.00 in0.0 mm
09:35 PM 47.2°F8.4°C 38.3°F3.5°C 71% 2.2 mph NNE3.5 kmh NNE 4.0 mph6.4 kmh 30.07 in1018.3 mb 0.00 in0.0 mm 0.00 in0.0 mm 0.00 in0.0 mm
09:40 PM 47.1°F8.4°C 38.2°F3.4°C 71% 2.0 mph NE3.2 kmh NE 5.0 mph8.0 kmh 30.07 in1018.3 mb 0.00 in0.0 mm 0.00 in0.0 mm 0.00 in0.0 mm
09:45 PM 47.1°F8.4°C 38.2°F3.4°C 71% 2.0 mph NE3.2 kmh NE 5.0 mph8.0 kmh 30.07 in1018.3 mb 0.00 in0.0 mm 0.00 in0.0 mm 0.00 in0.0 mm
09:50 PM 46.9°F8.3°C 38.3°F3.5°C 72% 1.5 mph NE2.4 kmh NE 2.0 mph3.2 kmh 30.08 in1018.6 mb 0.00 in0.0 mm 0.00 in0.0 mm 0.00 in0.0 mm
09:55 PM 46.7°F8.2°C 38.1°F3.4°C 72% 0.5 mph 0.8 kmh -- 30.08 in1018.6 mb 0.00 in0.0 mm 0.00 in0.0 mm 0.00 in0.0 mm
10:00 PM 46.7°F8.2°C 38.1°F3.4°C 72% 0.1 mph NE0.2 kmh NE 5.0 mph8.0 kmh 30.08 in1018.6 mb 0.00 in0.0 mm 0.00 in0.0 mm 0.00 in0.0 mm
10:05 PM 46.6°F8.1°C 38.4°F3.6°C 73% 0.6 mph NE1.0 kmh NE 5.0 mph8.0 kmh 30.08 in1018.6 mb 0.00 in0.0 mm 0.00 in0.0 mm 0.00 in0.0 mm
10:10 PM 46.7°F8.2°C 38.5°F3.6°C 73% 1.0 mph NE1.6 kmh NE 5.0 mph8.0 kmh 30.08 in1018.6 mb 0.00 in0.0 mm 0.00 in0.0 mm 0.00 in0.0 mm
10:15 PM 46.6°F8.1°C 38.1°F3.4°C 72% 1.0 mph NE1.6 kmh NE 5.0 mph8.0 kmh 30.08 in1018.6 mb 0.00 in0.0 mm 0.00 in0.0 mm 0.00 in0.0 mm
10:20 PM 46.4°F8.0°C 38.2°F3.4°C 73% 0.8 mph NNE1.3 kmh NNE 1.0 mph1.6 kmh 30.08 in1018.6 mb 0.00 in0.0 mm 0.00 in0.0 mm 0.00 in0.0 mm
10:25 PM 46.0°F7.8°C 38.2°F3.4°C 74% 0.3 mph NNE0.5 kmh NNE 2.0 mph3.2 kmh 30.08 in1018.6 mb 0.00 in0.0 mm 0.00 in0.0 mm 0.00 in0.0 mm
10:30 PM 45.7°F7.6°C 38.2°F3.4°C 75% Calm Calm 2.0 mph3.2 kmh 30.08 in1018.6 mb 0.00 in0.0 mm 0.00 in0.0 mm 0.00 in0.0 mm
10:35 PM 45.5°F7.5°C 38.4°F3.6°C 76% Calm Calm 1.0 mph1.6 kmh 30.08 in1018.6 mb 0.00 in0.0 mm 0.00 in0.0 mm 0.00 in0.0 mm
10:40 PM 45.5°F7.5°C 39.0°F3.9°C 78% Calm Calm -- 30.08 in1018.6 mb 0.00 in0.0 mm 0.00 in0.0 mm 0.00 in0.0 mm
10:45 PM 45.6°F7.6°C 39.1°F3.9°C 78% Calm Calm -- 30.09 in1019.0 mb 0.00 in0.0 mm 0.00 in0.0 mm 0.00 in0.0 mm
10:50 PM 45.5°F7.5°C 38.7°F3.7°C 77% Calm Calm -- 30.09 in1019.0 mb 0.00 in0.0 mm 0.00 in0.0 mm 0.00 in0.0 mm
10:55 PM 45.4°F7.4°C 38.6°F3.7°C 77% Calm Calm -- 30.09 in1019.0 mb 0.00 in0.0 mm 0.00 in0.0 mm 0.00 in0.0 mm
11:00 PM 45.4°F7.4°C 38.3°F3.5°C 76% Calm Calm -- 30.09 in1019.0 mb 0.00 in0.0 mm 0.00 in0.0 mm 0.00 in0.0 mm
11:05 PM 45.3°F7.4°C 38.2°F3.4°C 76% Calm Calm -- 30.09 in1019.0 mb 0.00 in0.0 mm 0.00 in0.0 mm 0.00 in0.0 mm
11:10 PM 45.2°F7.3°C 38.1°F3.4°C 76% Calm Calm -- 30.08 in1018.6 mb 0.00 in0.0 mm 0.00 in0.0 mm 0.00 in0.0 mm
11:15 PM 45.2°F7.3°C 38.1°F3.4°C 76% Calm Calm 1.0 mph1.6 kmh 30.08 in1018.6 mb 0.00 in0.0 mm 0.00 in0.0 mm 0.00 in0.0 mm
11:20 PM 45.2°F7.3°C 38.1°F3.4°C 76% Calm Calm 2.0 mph3.2 kmh 30.09 in1019.0 mb 0.00 in0.0 mm 0.00 in0.0 mm 0.00 in0.0 mm
11:25 PM 45.0°F7.2°C 37.9°F3.3°C 76% Calm Calm 2.0 mph3.2 kmh 30.08 in1018.6 mb 0.00 in0.0 mm 0.00 in0.0 mm 0.00 in0.0 mm
11:30 PM 44.9°F7.2°C 38.1°F3.4°C 77% Calm Calm -- 30.09 in1019.0 mb 0.00 in0.0 mm 0.00 in0.0 mm 0.00 in0.0 mm
11:35 PM 44.7°F7.1°C 37.9°F3.3°C 77% Calm Calm -- 30.09 in1019.0 mb 0.00 in0.0 mm 0.00 in0.0 mm 0.00 in0.0 mm
11:40 PM 44.4°F6.9°C 37.6°F3.1°C 77% Calm Calm -- 30.09 in1019.0 mb 0.00 in0.0 mm 0.00 in0.0 mm 0.00 in0.0 mm
11:45 PM 44.1°F6.7°C 37.7°F3.2°C 78% Calm Calm -- 30.09 in1019.0 mb 0.00 in0.0 mm 0.00 in0.0 mm 0.00 in0.0 mm
11:50 PM 44.0°F6.7°C 37.9°F3.3°C 79% Calm Calm -- 30.09 in1019.0 mb 0.00 in0.0 mm 0.00 in0.0 mm 0.00 in0.0 mm
11:55 PM 43.9°F6.6°C 38.1°F3.4°C 80% Calm Calm -- 30.09 in1019.0 mb 0.00 in0.0 mm 0.00 in0.0 mm 0.00 in0.0 mm